Time;durP1;ratioP1;P1;durP2;ratioP2;P2;SDS_P1;SDS_P2;PMS_P1;PMS_P2;Temp;Humidity;BMP_temperature;BMP_pressure;BME280_temperature;BME280_humidity;BME280_pressure;Samples;Min_cycle;Max_cycle;Signal;HPM_P1;HPM_P2
2022/02/06 00:00:53;;;;;;;8.13;5.13;;;;;;;;;;4946190;28;20062;-71
2022/02/06 00:03:23;;;;;;;9.57;5.25;;;;;;;;;;4970394;28;20046;-71
2022/02/06 00:05:54;;;;;;;9.63;5.50;;;;;;;;;;4952809;29;20059;-71
2022/02/06 00:08:25;;;;;;;11.57;5.82;;;;;;;;;;4952941;29;20055;-71
2022/02/06 00:10:55;;;;;;;10.95;6.03;;;;;;;;;;4932317;29;20425;-69
2022/02/06 00:13:25;;;;;;;11.65;5.50;;;;;;;;;;4905393;29;20058;-68
2022/02/06 00:15:57;;;;;;;13.35;6.03;;;;;;;;;;4952432;29;20047;-67
2022/02/06 00:18:27;;;;;;;11.18;6.38;;;;;;;;;;4952206;29;20051;-67
2022/02/06 00:21:02;;;;;;;11.43;6.70;;;;;;;;;;4952380;29;20058;-67
2022/02/06 00:23:34;;;;;;;11.77;6.28;;;;;;;;;;4920668;29;20062;-67
2022/02/06 00:32:13;;;;;;;10.82;6.65;;;;;;;;;;4842362;29;20057;-70
2022/02/06 00:35:13;;;;;;;13.23;6.90;;;;;;;;;;4857970;29;20065;-72
2022/02/06 00:40:32;;;;;;;10.57;6.50;;;;;;;;;;4857608;29;20502;-72
2022/02/06 00:43:02;;;;;;;10.77;6.55;;;;;;;;;;4857921;29;20065;-72
2022/02/06 00:45:33;;;;;;;12.70;6.40;;;;;;;;;;4858039;29;20467;-72
2022/02/06 00:48:04;;;;;;;10.02;6.47;;;;;;;;;;4857949;29;20077;-72
2022/02/06 00:50:38;;;;;;;11.85;6.78;;;;;;;;;;4857426;29;20053;-72
2022/02/06 00:53:15;;;;;;;10.52;6.63;;;;;;;;;;4796707;29;20062;-73
2022/02/06 00:55:46;;;;;;;11.50;6.60;;;;;;;;;;4839324;29;20392;-72
2022/02/06 00:58:17;;;;;;;9.98;6.85;;;;;;;;;;4824237;29;20154;-71
2022/02/06 01:00:48;;;;;;;12.57;7.22;;;;;;;;;;4868039;29;20472;-71
2022/02/06 01:03:19;;;;;;;13.77;7.68;;;;;;;;;;4876034;29;20056;-71
2022/02/06 01:05:55;;;;;;;11.32;7.30;;;;;;;;;;4875925;29;20410;-72
2022/02/06 01:08:27;;;;;;;12.73;6.32;;;;;;;;;;4877329;29;20070;-71
2022/02/06 01:10:57;;;;;;;14.02;6.82;;;;;;;;;;4917061;29;20047;-71
2022/02/06 01:13:39;;;;;;;11.95;7.20;;;;;;;;;;4885296;29;20060;-71
2022/02/06 01:16:24;;;;;;;12.48;7.10;;;;;;;;;;4885519;29;20048;-72
2022/02/06 01:19:00;;;;;;;10.82;6.85;;;;;;;;;;4932248;29;20044;-71
2022/02/06 01:24:13;;;;;;;12.07;7.25;;;;;;;;;;4932200;29;20066;-71
2022/02/06 01:26:58;;;;;;;12.48;7.22;;;;;;;;;;4918088;29;20056;-71
2022/02/06 01:29:38;;;;;;;11.50;7.28;;;;;;;;;;4952298;28;20079;-71
2022/02/06 01:32:13;;;;;;;15.30;6.82;;;;;;;;;;4992903;28;20110;-72
2022/02/06 01:37:30;;;;;;;13.13;6.70;;;;;;;;;;4953879;28;20058;-71
2022/02/06 01:40:07;;;;;;;14.13;7.78;;;;;;;;;;4922807;28;20054;-71
2022/02/06 01:42:49;;;;;;;14.40;6.95;;;;;;;;;;4970304;28;20529;-71
2022/02/06 02:07:44;;;;;;;10.27;6.60;;;;;;;;;;4856239;29;20189;-71
2022/02/06 02:18:42;;;;;;;17.45;7.72;;;;;;;;;;4875016;29;20090;-71
2022/02/06 02:21:59;;;;;;;15.70;7.88;;;;;;;;;;4837795;29;20078;-72
2022/02/06 02:43:57;;;;;;;14.88;7.63;;;;;;;;;;4916405;29;20044;-71
2022/02/06 02:46:38;;;;;;;14.15;7.35;;;;;;;;;;4916245;29;20416;-72
2022/02/06 02:49:01;;;;;;;12.80;7.10;;;;;;;;;;4927775;29;20062;-72
2022/02/06 02:51:36;;;;;;;14.88;6.88;;;;;;;;;;4954057;29;20059;-71
2022/02/06 02:54:11;;;;;;;10.38;6.45;;;;;;;;;;4954357;29;20051;-71
2022/02/06 02:56:48;;;;;;;11.57;6.72;;;;;;;;;;4954002;29;20054;-71
2022/02/06 02:59:30;;;;;;;13.27;7.82;;;;;;;;;;5008101;28;20061;-71
2022/02/06 03:02:02;;;;;;;14.30;6.97;;;;;;;;;;4997672;28;20038;-72
2022/02/06 03:04:33;;;;;;;12.00;7.05;;;;;;;;;;5014800;28;20517;-71
2022/02/06 03:07:05;;;;;;;11.65;6.93;;;;;;;;;;5014596;28;20049;-72
2022/02/06 03:09:40;;;;;;;12.00;6.60;;;;;;;;;;4964130;28;20433;-71
2022/02/06 03:12:13;;;;;;;14.57;6.65;;;;;;;;;;4997351;28;20046;-71
2022/02/06 03:14:50;;;;;;;14.23;6.57;;;;;;;;;;4980202;28;20077;-72
2022/02/06 03:17:44;;;;;;;15.50;8.15;;;;;;;;;;4964797;28;20502;-71
2022/02/06 03:20:19;;;;;;;11.63;6.82;;;;;;;;;;5014209;28;20068;-72
2022/02/06 03:22:54;;;;;;;22.02;7.15;;;;;;;;;;5014497;28;20053;-72
2022/02/06 03:25:25;;;;;;;19.45;7.30;;;;;;;;;;4972717;28;20517;-71
2022/02/06 03:27:56;;;;;;;13.68;7.05;;;;;;;;;;4972812;28;20062;-72
2022/02/06 03:30:29;;;;;;;13.52;7.53;;;;;;;;;;4972536;28;20062;-71
2022/02/06 03:32:59;;;;;;;14.60;7.13;;;;;;;;;;4972672;28;20055;-71
2022/02/06 03:35:29;;;;;;;11.98;6.78;;;;;;;;;;4934246;29;20056;-72
2022/02/06 03:38:00;;;;;;;13.05;7.90;;;;;;;;;;4934098;29;20104;-72
2022/02/06 03:40:36;;;;;;;16.08;7.53;;;;;;;;;;4886911;29;20056;-72
2022/02/06 03:43:16;;;;;;;18.23;7.80;;;;;;;;;;4934040;29;20058;-71
2022/02/06 03:45:56;;;;;;;12.27;7.20;;;;;;;;;;4932553;29;20074;-71
2022/02/06 03:48:50;;;;;;;18.13;7.63;;;;;;;;;;4934043;29;20071;-71
2022/02/06 03:51:28;;;;;;;19.27;7.32;;;;;;;;;;4914643;29;20424;-71
2022/02/06 03:54:00;;;;;;;14.73;7.80;;;;;;;;;;4885222;29;20436;-72
2022/02/06 03:56:32;;;;;;;17.48;8.23;;;;;;;;;;4917543;29;20157;-72
2022/02/06 03:59:04;;;;;;;17.33;7.28;;;;;;;;;;4952850;29;20044;-72
2022/02/06 04:01:35;;;;;;;17.80;8.45;;;;;;;;;;4905540;29;20053;-72
2022/02/06 04:04:05;;;;;;;15.23;7.45;;;;;;;;;;4948824;29;20063;-71
2022/02/06 04:06:35;;;;;;;12.45;7.18;;;;;;;;;;4967718;28;20054;-71
2022/02/06 04:09:12;;;;;;;13.75;7.88;;;;;;;;;;4933416;29;20526;-72
2022/02/06 04:11:50;;;;;;;15.77;7.45;;;;;;;;;;4932712;29;20831;-71
2022/02/06 04:14:27;;;;;;;13.48;7.75;;;;;;;;;;4933641;29;20382;-72
2022/02/06 04:17:07;;;;;;;18.48;7.82;;;;;;;;;;4933409;29;20060;-72
2022/02/06 04:19:37;;;;;;;13.00;7.18;;;;;;;;;;4949010;29;20431;-72
2022/02/06 04:22:07;;;;;;;15.85;6.90;;;;;;;;;;4933305;29;20091;-72
2022/02/06 04:24:44;;;;;;;15.60;7.25;;;;;;;;;;4933254;29;20060;-72
2022/02/06 04:27:14;;;;;;;14.98;7.97;;;;;;;;;;4933295;29;20051;-72
2022/02/06 04:29:46;;;;;;;16.95;7.95;;;;;;;;;;4917505;29;20167;-71
2022/02/06 04:32:17;;;;;;;13.77;7.72;;;;;;;;;;4929347;29;20064;-72
2022/02/06 04:34:51;;;;;;;16.17;7.43;;;;;;;;;;4889116;29;20068;-72
2022/02/06 04:37:31;;;;;;;13.75;6.97;;;;;;;;;;4876584;29;20414;-71
2022/02/06 04:40:13;;;;;;;16.80;7.78;;;;;;;;;;4902423;29;20052;-71
2022/02/06 04:43:05;;;;;;;13.93;8.15;;;;;;;;;;4932726;29;20048;-71
2022/02/06 04:46:03;;;;;;;14.05;7.43;;;;;;;;;;4913927;29;20056;-72
2022/02/06 04:49:06;;;;;;;17.83;7.82;;;;;;;;;;4913966;29;20549;-71
2022/02/06 04:52:09;;;;;;;13.63;7.35;;;;;;;;;;4913873;29;20060;-71
2022/02/06 04:55:03;;;;;;;17.67;7.80;;;;;;;;;;4913681;29;20064;-71
2022/02/06 05:17:09;;;;;;;18.55;8.48;;;;;;;;;;4933847;28;20048;-71
2022/02/06 05:25:27;;;;;;;15.10;8.35;;;;;;;;;;4977622;28;20057;-72
2022/02/06 05:30:51;;;;;;;16.58;7.68;;;;;;;;;;4961632;28;20506;-72
2022/02/06 05:33:22;;;;;;;15.57;8.32;;;;;;;;;;5011865;28;20058;-72
2022/02/06 05:35:52;;;;;;;16.80;7.22;;;;;;;;;;4977634;28;20053;-72
2022/02/06 05:38:22;;;;;;;16.13;7.63;;;;;;;;;;5011663;28;20038;-72
2022/02/06 05:40:56;;;;;;;16.25;7.95;;;;;;;;;;4977036;28;20124;-71
2022/02/06 05:43:26;;;;;;;15.45;7.93;;;;;;;;;;5011770;28;20524;-71
2022/02/06 05:45:56;;;;;;;15.88;8.10;;;;;;;;;;5011862;28;20073;-71
2022/02/06 05:48:26;;;;;;;15.48;7.93;;;;;;;;;;5011698;28;20045;-72
2022/02/06 05:50:57;;;;;;;19.52;7.30;;;;;;;;;;4961004;28;20053;-71
2022/02/06 05:53:27;;;;;;;17.73;8.45;;;;;;;;;;4962348;28;20058;-72
2022/02/06 05:55:59;;;;;;;18.52;8.13;;;;;;;;;;5011499;28;20387;-71
2022/02/06 05:58:29;;;;;;;17.63;7.88;;;;;;;;;;5011830;28;20050;-72
2022/02/06 06:00:59;;;;;;;13.85;7.57;;;;;;;;;;4977295;28;20061;-71
2022/02/06 06:03:29;;;;;;;16.40;7.70;;;;;;;;;;5011245;28;20042;-72
2022/02/06 06:06:00;;;;;;;12.95;7.95;;;;;;;;;;5011496;28;20068;-71
2022/02/06 06:08:31;;;;;;;15.07;7.82;;;;;;;;;;4976013;28;20402;-72
2022/02/06 06:11:01;;;;;;;14.18;7.65;;;;;;;;;;4977192;28;20065;-71
2022/02/06 06:13:31;;;;;;;13.90;7.65;;;;;;;;;;4950466;29;20411;-71
2022/02/06 06:16:04;;;;;;;14.93;7.85;;;;;;;;;;4950782;29;20062;-71
2022/02/06 06:18:35;;;;;;;14.35;7.65;;;;;;;;;;4950509;29;20067;-72
2022/02/06 06:21:06;;;;;;;15.88;7.07;;;;;;;;;;4935120;29;20062;-71
2022/02/06 06:23:42;;;;;;;13.68;8.02;;;;;;;;;;4918587;29;20060;-72
2022/02/06 06:26:16;;;;;;;15.23;7.15;;;;;;;;;;4919003;29;20055;-71
2022/02/06 06:28:47;;;;;;;16.48;7.50;;;;;;;;;;4950390;29;20533;-71
2022/02/06 06:31:17;;;;;;;20.15;7.65;;;;;;;;;;4935183;29;20067;-72
2022/02/06 06:33:47;;;;;;;18.40;7.38;;;;;;;;;;4918477;29;20047;-71
2022/02/06 06:36:20;;;;;;;16.55;8.00;;;;;;;;;;4950811;29;20051;-71
2022/02/06 06:38:53;;;;;;;12.60;7.03;;;;;;;;;;4950470;29;20059;-71
2022/02/06 06:41:42;;;;;;;18.05;7.63;;;;;;;;;;4950641;29;20047;-72
2022/02/06 06:44:12;;;;;;;12.65;6.55;;;;;;;;;;4950528;29;20070;-72
2022/02/06 06:46:42;;;;;;;19.00;7.28;;;;;;;;;;4950441;29;20062;-72
2022/02/06 06:49:13;;;;;;;16.42;7.13;;;;;;;;;;4950459;29;20043;-71
2022/02/06 06:51:44;;;;;;;34.42;7.90;;;;;;;;;;4924135;29;20542;-71
2022/02/06 06:54:19;;;;;;;15.35;8.10;;;;;;;;;;4931062;29;20052;-72
2022/02/06 06:57:02;;;;;;;15.68;8.70;;;;;;;;;;4931088;29;20051;-71
2022/02/06 07:02:27;;;;;;;16.90;7.50;;;;;;;;;;4931240;29;20063;-71
2022/02/06 07:05:03;;;;;;;16.45;8.00;;;;;;;;;;4931393;29;20071;-71
2022/02/06 07:07:34;;;;;;;19.83;7.38;;;;;;;;;;4880587;29;20582;-71
2022/02/06 07:10:07;;;;;;;17.80;7.85;;;;;;;;;;4896232;29;20059;-72
2022/02/06 07:12:37;;;;;;;16.40;7.25;;;;;;;;;;4912139;29;20064;-71
2022/02/06 07:15:08;;;;;;;18.20;7.78;;;;;;;;;;4912318;29;20052;-71
2022/02/06 07:17:38;;;;;;;15.52;7.40;;;;;;;;;;4911952;29;20056;-71
2022/02/06 07:20:09;;;;;;;13.65;7.35;;;;;;;;;;4914056;29;20060;-71
2022/02/06 07:22:39;;;;;;;18.63;7.60;;;;;;;;;;4915370;29;20064;-72
2022/02/06 07:25:10;;;;;;;15.45;7.80;;;;;;;;;;4923028;29;20063;-72
2022/02/06 07:27:45;;;;;;;17.45;7.18;;;;;;;;;;4934360;29;20056;-72
2022/02/06 07:30:17;;;;;;;18.15;7.43;;;;;;;;;;4984593;28;20066;-71
2022/02/06 07:32:47;;;;;;;15.45;7.70;;;;;;;;;;4991977;28;20070;-71
2022/02/06 07:35:18;;;;;;;13.60;7.38;;;;;;;;;;4972646;28;20066;-71
2022/02/06 07:37:55;;;;;;;20.05;8.10;;;;;;;;;;4940615;28;20376;-71
2022/02/06 07:40:26;;;;;;;20.35;7.55;;;;;;;;;;4972615;28;20459;-71
2022/02/06 07:42:57;;;;;;;13.05;7.90;;;;;;;;;;4972624;28;20091;-71
2022/02/06 07:45:35;;;;;;;14.13;7.82;;;;;;;;;;4969618;28;20434;-72
2022/02/06 07:48:08;;;;;;;17.23;7.93;;;;;;;;;;4944031;28;20541;-71
2022/02/06 07:50:39;;;;;;;12.80;7.53;;;;;;;;;;4992044;28;20066;-72
2022/02/06 07:53:10;;;;;;;16.27;7.70;;;;;;;;;;4991880;28;20061;-71
2022/02/06 07:55:40;;;;;;;13.40;7.78;;;;;;;;;;4943893;28;20062;-71
2022/02/06 07:58:10;;;;;;;12.73;6.95;;;;;;;;;;4975412;28;20402;-71
2022/02/06 08:00:40;;;;;;;13.82;7.28;;;;;;;;;;4991606;28;20431;-72
2022/02/06 08:03:11;;;;;;;14.40;7.00;;;;;;;;;;4943391;28;20042;-71
2022/02/06 08:05:41;;;;;;;18.25;6.93;;;;;;;;;;4975653;28;20054;-71
2022/02/06 08:08:15;;;;;;;13.05;7.25;;;;;;;;;;4991310;28;20063;-71
2022/02/06 08:10:45;;;;;;;12.82;6.65;;;;;;;;;;4991511;28;20060;-71
2022/02/06 08:13:26;;;;;;;14.00;6.65;;;;;;;;;;4943061;28;20046;-72
2022/02/06 08:16:00;;;;;;;16.55;7.00;;;;;;;;;;4991381;28;20055;-71
2022/02/06 08:18:30;;;;;;;13.63;6.50;;;;;;;;;;4991368;28;20155;-71
2022/02/06 08:21:00;;;;;;;17.38;6.55;;;;;;;;;;4991118;28;20490;-71
2022/02/06 08:23:44;;;;;;;17.67;7.85;;;;;;;;;;4991622;28;20054;-71
2022/02/06 08:26:14;;;;;;;16.50;7.22;;;;;;;;;;4952166;29;20051;-71
2022/02/06 08:28:46;;;;;;;13.52;7.15;;;;;;;;;;4952276;29;20062;-71
2022/02/06 08:31:16;;;;;;;13.93;7.20;;;;;;;;;;4951333;28;20059;-71
2022/02/06 08:33:46;;;;;;;11.48;6.25;;;;;;;;;;4951909;28;20438;-71
2022/02/06 08:36:16;;;;;;;11.10;6.65;;;;;;;;;;4952128;29;20059;-71
2022/02/06 08:39:05;;;;;;;17.40;6.50;;;;;;;;;;4913873;29;20056;-71
2022/02/06 08:41:36;;;;;;;23.70;6.38;;;;;;;;;;4882706;29;20072;-72
2022/02/06 08:44:06;;;;;;;13.25;6.65;;;;;;;;;;4876068;29;20067;-71
2022/02/06 08:46:36;;;;;;;10.05;6.57;;;;;;;;;;4913368;29;20067;-71
2022/02/06 08:49:06;;;;;;;13.82;6.82;;;;;;;;;;4882791;29;20061;-71
2022/02/06 08:51:37;;;;;;;11.07;6.50;;;;;;;;;;4894571;29;20056;-71
2022/02/06 08:54:09;;;;;;;19.60;6.70;;;;;;;;;;4894820;29;20088;-72
2022/02/06 08:56:39;;;;;;;;;;;;;;;;;;4864178;29;20052;-71
2022/02/06 08:59:10;;;;;;;10.00;5.75;;;;;;;;;;4913151;29;19923;-71
2022/02/06 09:01:41;;;;;;;11.80;6.20;;;;;;;;;;4913380;29;20448;-71
2022/02/06 09:04:11;;;;;;;11.95;6.40;;;;;;;;;;4909540;29;20051;-71
2022/02/06 09:06:41;;;;;;;11.77;6.20;;;;;;;;;;4920134;29;20071;-71
2022/02/06 09:09:14;;;;;;;11.80;6.47;;;;;;;;;;4894340;29;20540;-71
2022/02/06 09:11:45;;;;;;;;;;;;;;;;;;4863829;29;20052;-71
2022/02/06 09:14:17;;;;;;;;;;;;;;;;;;4895020;29;19923;-71
2022/02/06 09:16:48;;;;;;;13.52;6.30;;;;;;;;;;4884058;29;19924;-71
2022/02/06 09:19:19;;;;;;;17.95;7.07;;;;;;;;;;4875619;29;20064;-71
2022/02/06 09:21:50;;;;;;;12.73;6.30;;;;;;;;;;4875647;29;20171;-71
2022/02/06 09:24:21;;;;;;;14.90;7.07;;;;;;;;;;4865654;29;20068;-71
2022/02/06 09:26:51;;;;;;;13.15;6.45;;;;;;;;;;4887724;29;20057;-71
2022/02/06 09:29:21;;;;;;;11.55;6.40;;;;;;;;;;4891175;29;20057;-71
2022/02/06 09:31:53;;;;;;;14.48;6.43;;;;;;;;;;4894011;29;20049;-70
2022/02/06 09:36:53;;;;;;;13.35;6.63;;;;;;;;;;4894161;29;20060;-71
2022/02/06 09:39:23;;;;;;;11.13;5.65;;;;;;;;;;4910017;29;20052;-71
2022/02/06 09:41:53;;;;;;;16.58;6.80;;;;;;;;;;4894058;29;20537;-71
2022/02/06 09:44:28;;;;;;;12.25;5.97;;;;;;;;;;4909526;29;20052;-71
2022/02/06 09:47:00;;;;;;;13.60;6.28;;;;;;;;;;4914863;29;20140;-71
2022/02/06 09:49:33;;;;;;;13.70;7.10;;;;;;;;;;4931967;29;20051;-71
2022/02/06 09:52:03;;;;;;;13.48;6.88;;;;;;;;;;4916479;29;20063;-71
2022/02/06 09:54:34;;;;;;;14.43;7.13;;;;;;;;;;4944649;28;20502;-71
2022/02/06 09:57:11;;;;;;;13.95;7.13;;;;;;;;;;5011509;28;20038;-71
2022/02/06 09:59:41;;;;;;;13.63;6.90;;;;;;;;;;4977234;28;20064;-71
2022/02/06 10:02:13;;;;;;;14.20;7.60;;;;;;;;;;5011442;28;20045;-71
2022/02/06 10:04:48;;;;;;;15.43;8.27;;;;;;;;;;5011536;28;20049;-71
2022/02/06 10:07:40;;;;;;;15.00;7.35;;;;;;;;;;5011289;28;20046;-71
2022/02/06 10:10:13;;;;;;;18.63;9.13;;;;;;;;;;5011572;28;20405;-71
2022/02/06 10:12:45;;;;;;;15.98;8.13;;;;;;;;;;5011335;28;20053;-70
2022/02/06 10:15:19;;;;;;;13.82;8.02;;;;;;;;;;4937926;28;20054;-71
2022/02/06 10:17:49;;;;;;;14.98;8.77;;;;;;;;;;4969942;28;20055;-71
2022/02/06 10:20:31;;;;;;;15.55;8.13;;;;;;;;;;4938544;28;20082;-70
2022/02/06 10:23:08;;;;;;;16.77;8.38;;;;;;;;;;4969920;28;20053;-71
2022/02/06 10:25:48;;;;;;;15.32;7.15;;;;;;;;;;4916211;29;20071;-71
2022/02/06 10:31:07;;;;;;;13.27;7.70;;;;;;;;;;4894040;29;20063;-72
2022/02/06 10:33:49;;;;;;;12.18;6.32;;;;;;;;;;4940816;28;20052;-72
2022/02/06 10:36:39;;;;;;;14.25;7.78;;;;;;;;;;4929242;29;20068;-72
2022/02/06 10:39:11;;;;;;;9.70;5.97;;;;;;;;;;4899648;29;20055;-72
2022/02/06 10:41:46;;;;;;;11.05;6.00;;;;;;;;;;4916003;29;20043;-72
2022/02/06 10:44:18;;;;;;;12.02;6.05;;;;;;;;;;4931214;29;20067;-71
2022/02/06 10:46:57;;;;;;;11.43;6.82;;;;;;;;;;4915227;29;20056;-72
2022/02/06 10:49:28;;;;;;;12.13;6.63;;;;;;;;;;4909203;29;20060;-72
2022/02/06 10:52:00;;;;;;;11.20;5.97;;;;;;;;;;4935997;28;20059;-72
2022/02/06 10:54:30;;;;;;;14.63;6.18;;;;;;;;;;4970806;28;20059;-72
2022/02/06 10:57:05;;;;;;;11.98;6.30;;;;;;;;;;4973343;28;20055;-72
2022/02/06 10:59:45;;;;;;;13.02;6.75;;;;;;;;;;4973179;28;20123;-71
2022/02/06 11:02:34;;;;;;;10.82;6.20;;;;;;;;;;4976251;28;20061;-73
2022/02/06 11:05:20;;;;;;;10.57;6.18;;;;;;;;;;5014567;28;20050;-71
2022/02/06 11:08:00;;;;;;;9.05;5.50;;;;;;;;;;4997586;28;20042;-72
2022/02/06 11:10:35;;;;;;;13.35;6.03;;;;;;;;;;4992175;28;20513;-71
2022/02/06 11:13:06;;;;;;;10.90;6.05;;;;;;;;;;4992570;28;20158;-72
2022/02/06 11:15:45;;;;;;;10.65;6.28;;;;;;;;;;4992668;28;20067;-71
2022/02/06 11:18:23;;;;;;;11.10;6.93;;;;;;;;;;5003048;28;20050;-71
2022/02/06 11:20:59;;;;;;;9.98;5.32;;;;;;;;;;5010513;28;20049;-72
2022/02/06 11:23:40;;;;;;;15.63;5.80;;;;;;;;;;4979326;28;20500;-72
2022/02/06 11:26:28;;;;;;;15.02;6.05;;;;;;;;;;4991902;28;20051;-72
2022/02/06 11:28:59;;;;;;;11.02;5.70;;;;;;;;;;4972485;28;20051;-72
2022/02/06 11:31:30;;;;;;;10.90;6.43;;;;;;;;;;4940554;28;20057;-73
2022/02/06 11:34:00;;;;;;;8.68;5.28;;;;;;;;;;4972073;28;20487;-72
2022/02/06 11:45:47;;;;;;;9.93;6.10;;;;;;;;;;4972562;28;20050;-72
2022/02/06 11:48:19;;;;;;;10.05;5.85;;;;;;;;;;4933553;29;20051;-71
2022/02/06 11:50:51;;;;;;;11.43;6.22;;;;;;;;;;4933936;29;20060;-71
2022/02/06 11:53:27;;;;;;;11.82;5.32;;;;;;;;;;4933294;29;20051;-71
2022/02/06 11:55:58;;;;;;;12.55;5.88;;;;;;;;;;4902218;29;20043;-72
2022/02/06 11:58:33;;;;;;;9.73;5.75;;;;;;;;;;4898714;29;20063;-72
2022/02/06 12:01:14;;;;;;;10.13;6.38;;;;;;;;;;4923718;29;20427;-71
2022/02/06 12:03:59;;;;;;;10.07;5.68;;;;;;;;;;4905905;29;20048;-75
2022/02/06 12:06:48;;;;;;;10.23;6.45;;;;;;;;;;4903149;29;20052;-71
2022/02/06 12:09:23;;;;;;;10.40;6.10;;;;;;;;;;4895344;29;20571;-71
2022/02/06 12:12:08;;;;;;;10.85;6.53;;;;;;;;;;4914833;29;20048;-70
2022/02/06 12:14:48;;;;;;;10.35;6.43;;;;;;;;;;4913703;29;20452;-74
2022/02/06 12:20:14;;;;;;;11.30;6.30;;;;;;;;;;4883077;29;20048;-71
2022/02/06 12:22:54;;;;;;;14.02;6.03;;;;;;;;;;4914238;29;20052;-72
2022/02/06 12:25:35;;;;;;;9.73;5.95;;;;;;;;;;4919512;29;20056;-72
2022/02/06 12:28:18;;;;;;;12.25;6.40;;;;;;;;;;4917278;29;20448;-71
2022/02/06 12:30:55;;;;;;;8.77;5.72;;;;;;;;;;4940833;29;20067;-71
2022/02/06 12:33:36;;;;;;;10.73;6.25;;;;;;;;;;4952353;29;20058;-71
2022/02/06 12:38:57;;;;;;;10.52;6.18;;;;;;;;;;4866015;29;20571;-71
2022/02/06 12:41:29;;;;;;;11.82;6.65;;;;;;;;;;4962271;28;20555;-74
2022/02/06 12:44:07;;;;;;;11.63;6.60;;;;;;;;;;4955076;28;20051;-72
2022/02/06 12:46:38;;;;;;;14.25;7.28;;;;;;;;;;4986394;28;20054;-75
2022/02/06 12:49:08;;;;;;;11.45;7.15;;;;;;;;;;5017544;28;20054;-76
2022/02/06 12:51:41;;;;;;;12.82;7.30;;;;;;;;;;5021757;28;20042;-73
2022/02/06 12:54:17;;;;;;;12.18;6.72;;;;;;;;;;5013152;28;20110;-71
2022/02/06 12:56:48;;;;;;;17.23;7.20;;;;;;;;;;4977943;28;20064;-69
2022/02/06 12:59:21;;;;;;;12.50;6.45;;;;;;;;;;4977974;28;20055;-69
2022/02/06 13:01:55;;;;;;;13.32;6.75;;;;;;;;;;4994260;28;20050;-68
2022/02/06 13:04:28;;;;;;;9.75;5.70;;;;;;;;;;5012313;28;20053;-69
2022/02/06 13:07:04;;;;;;;13.55;7.03;;;;;;;;;;4978633;28;20406;-66
2022/02/06 13:09:42;;;;;;;12.73;6.78;;;;;;;;;;4951664;29;20490;-70
2022/02/06 13:15:10;;;;;;;14.40;6.47;;;;;;;;;;4951693;29;20066;-68
2022/02/06 13:26:46;;;;;;;10.88;6.07;;;;;;;;;;4872165;29;20393;-71
2022/02/06 13:29:46;;;;;;;17.13;6.25;;;;;;;;;;4929727;29;21060;-69
2022/02/06 13:35:55;;;;;;;10.18;5.72;;;;;;;;;;4931290;29;20416;-70
2022/02/06 13:38:09;;;;;;;15.27;6.18;;;;;;;;;;4844370;29;20057;-72
2022/02/06 13:40:48;;;;;;;10.25;6.05;;;;;;;;;;4875230;29;20068;-71
2022/02/06 13:43:23;;;;;;;8.75;5.82;;;;;;;;;;4875345;29;20057;-76
2022/02/06 13:45:57;;;;;;;8.48;5.60;;;;;;;;;;4875170;29;20651;-71
2022/02/06 13:48:28;;;;;;;10.88;5.50;;;;;;;;;;4911910;29;20079;-71
2022/02/06 13:51:01;;;;;;;13.25;6.05;;;;;;;;;;4913024;29;20059;-71
2022/02/06 13:53:33;;;;;;;11.00;6.13;;;;;;;;;;4912895;29;20096;-71
2022/02/06 13:56:07;;;;;;;9.75;6.18;;;;;;;;;;4928019;29;20064;-71
2022/02/06 13:58:38;;;;;;;10.65;5.90;;;;;;;;;;4912883;29;20060;-71
2022/02/06 14:01:11;;;;;;;8.23;5.25;;;;;;;;;;4848029;29;20051;-71
2022/02/06 14:03:45;;;;;;;7.55;4.85;;;;;;;;;;4878170;29;20063;-72
2022/02/06 14:06:24;;;;;;;9.00;5.68;;;;;;;;;;4893827;29;20505;-71
2022/02/06 14:09:25;;;;;;;12.70;6.22;;;;;;;;;;4893970;29;20511;-71
2022/02/06 14:12:08;;;;;;;9.02;5.15;;;;;;;;;;4893799;29;20064;-71
2022/02/06 14:14:52;;;;;;;11.27;6.78;;;;;;;;;;4919038;28;20066;-71
2022/02/06 14:17:38;;;;;;;11.07;6.13;;;;;;;;;;4912416;29;20056;-71
2022/02/06 14:20:13;;;;;;;8.57;4.68;;;;;;;;;;4912404;29;20060;-73
2022/02/06 14:22:47;;;;;;;7.22;4.68;;;;;;;;;;4912221;29;20752;-72
2022/02/06 14:25:32;;;;;;;8.80;4.65;;;;;;;;;;4912321;29;20072;-72
2022/02/06 14:28:24;;;;;;;8.45;4.68;;;;;;;;;;4912361;29;20123;-71
2022/02/06 14:30:56;;;;;;;12.07;5.20;;;;;;;;;;4853449;29;20564;-71
2022/02/06 14:33:28;;;;;;;15.55;10.02;;;;;;;;;;4916257;29;20056;-73
2022/02/06 14:36:07;;;;;;;5.90;3.92;;;;;;;;;;4869990;29;20052;-71
2022/02/06 14:41:24;;;;;;;7.78;4.38;;;;;;;;;;4907048;29;19929;-70
2022/02/06 14:44:12;;;;;;;8.95;5.93;;;;;;;;;;4923048;29;20054;-71
2022/02/06 14:46:44;;;;;;;7.93;4.05;;;;;;;;;;4934873;29;20059;-72
2022/02/06 14:49:17;;;;;;;9.55;7.30;;;;;;;;;;4919352;29;20051;-72
2022/02/06 14:51:48;;;;;;;6.93;4.47;;;;;;;;;;4934984;29;20472;-70
2022/02/06 14:54:27;;;;;;;8.23;4.70;;;;;;;;;;4940750;28;20059;-71
2022/02/06 14:56:58;;;;;;;10.85;5.57;;;;;;;;;;4973418;28;20062;-71
2022/02/06 14:59:28;;;;;;;9.70;4.25;;;;;;;;;;4973517;28;20111;-71
2022/02/06 15:01:58;;;;;;;6.30;3.65;;;;;;;;;;4944671;28;20058;-70
2022/02/06 15:04:29;;;;;;;5.47;3.33;;;;;;;;;;4937806;29;20051;-71
2022/02/06 15:06:59;;;;;;;8.27;4.43;;;;;;;;;;4934065;29;20049;-70
2022/02/06 15:09:30;;;;;;;5.63;3.60;;;;;;;;;;4934222;29;20052;-70
2022/02/06 15:12:00;;;;;;;5.50;3.15;;;;;;;;;;4932586;29;20083;-73
2022/02/06 15:14:30;;;;;;;5.10;3.03;;;;;;;;;;4912319;29;20548;-72
2022/02/06 15:17:06;;;;;;;6.13;2.80;;;;;;;;;;4920943;29;20059;-73
2022/02/06 15:19:37;;;;;;;6.45;3.63;;;;;;;;;;4928496;29;20146;-71
2022/02/06 15:22:07;;;;;;;4.38;2.90;;;;;;;;;;4910781;29;20067;-71
2022/02/06 15:24:38;;;;;;;5.45;3.13;;;;;;;;;;4929657;29;20052;-72
2022/02/06 15:27:08;;;;;;;3.30;1.90;;;;;;;;;;4934104;29;20059;-70
2022/02/06 15:29:38;;;;;;;8.27;2.92;;;;;;;;;;4933936;29;20063;-71
2022/02/06 15:32:09;;;;;;;4.80;2.67;;;;;;;;;;4918321;29;20055;-71
2022/02/06 15:34:40;;;;;;;6.07;2.63;;;;;;;;;;4913505;29;20052;-72
2022/02/06 15:37:13;;;;;;;5.15;3.15;;;;;;;;;;4914421;29;20112;-71
2022/02/06 15:39:47;;;;;;;2.85;1.90;;;;;;;;;;4907778;29;20048;-71
2022/02/06 15:42:17;;;;;;;4.10;2.00;;;;;;;;;;4929042;29;20071;-71
2022/02/06 15:44:50;;;;;;;2.90;1.30;;;;;;;;;;4932436;28;20051;-73
2022/02/06 15:47:21;;;;;;;3.28;1.52;;;;;;;;;;4951549;29;20059;-72
2022/02/06 15:49:51;;;;;;;1.80;1.15;;;;;;;;;;4952152;29;20066;-71
2022/02/06 15:52:21;;;;;;;2.80;1.23;;;;;;;;;;4946615;28;20439;-75
2022/02/06 15:54:52;;;;;;;2.63;1.35;;;;;;;;;;4944648;29;20048;-74
2022/02/06 15:57:22;;;;;;;1.95;1.17;;;;;;;;;;4951201;29;20059;-73
2022/02/06 15:59:52;;;;;;;1.35;1.20;;;;;;;;;;4946423;29;20058;-73
2022/02/06 16:02:23;;;;;;;1.52;1.20;;;;;;;;;;4935031;29;20056;-73
2022/02/06 16:04:53;;;;;;;2.75;1.65;;;;;;;;;;4943055;29;20136;-73
2022/02/06 16:07:24;;;;;;;2.70;0.93;;;;;;;;;;4876475;29;20061;-72
2022/02/06 16:09:54;;;;;;;2.78;1.00;;;;;;;;;;4853820;29;20469;-71
2022/02/06 16:12:24;;;;;;;2.08;1.08;;;;;;;;;;4822119;29;20422;-75
2022/02/06 16:14:54;;;;;;;1.80;1.30;;;;;;;;;;4871342;29;20057;-74
2022/02/06 16:17:25;;;;;;;5.30;1.30;;;;;;;;;;4872595;29;20056;-75
2022/02/06 16:19:55;;;;;;;1.63;1.00;;;;;;;;;;4882044;29;20071;-73
2022/02/06 16:22:25;;;;;;;2.38;1.20;;;;;;;;;;4863120;29;20072;-73
2022/02/06 16:24:56;;;;;;;1.70;1.13;;;;;;;;;;4854919;29;20061;-76
2022/02/06 16:27:29;;;;;;;1.45;1.05;;;;;;;;;;4872740;29;20537;-77
2022/02/06 16:30:00;;;;;;;6.20;3.20;;;;;;;;;;4875073;29;20049;-74
2022/02/06 16:32:30;;;;;;;3.67;2.03;;;;;;;;;;4858691;29;20067;-73
2022/02/06 16:35:01;;;;;;;3.70;1.50;;;;;;;;;;4875551;29;20072;-73
2022/02/06 16:37:33;;;;;;;3.65;1.02;;;;;;;;;;4853369;29;20589;-77
2022/02/06 16:40:04;;;;;;;2.55;1.00;;;;;;;;;;4875047;29;20056;-76
2022/02/06 16:42:34;;;;;;;1.67;1.02;;;;;;;;;;4859999;29;20525;-76
2022/02/06 16:45:05;;;;;;;3.08;1.05;;;;;;;;;;4900836;29;20067;-75
2022/02/06 16:47:36;;;;;;;1.98;1.05;;;;;;;;;;4922158;29;20625;-77
2022/02/06 16:50:07;;;;;;;1.60;0.93;;;;;;;;;;4932077;29;20051;-75
2022/02/06 16:52:38;;;;;;;1.77;1.08;;;;;;;;;;4889508;28;20055;-72
2022/02/06 16:55:09;;;;;;;55.22;2.47;;;;;;;;;;4963043;28;20391;-75
2022/02/06 16:57:39;;;;;;;5.22;1.05;;;;;;;;;;4965730;28;20051;-74
2022/02/06 17:00:11;;;;;;;1.30;1.00;;;;;;;;;;4961924;28;20054;-75
2022/02/06 17:02:43;;;;;;;2.33;0.95;;;;;;;;;;4946149;29;20051;-73
2022/02/06 17:05:14;;;;;;;3.90;0.93;;;;;;;;;;4947357;29;20070;-76
2022/02/06 17:07:44;;;;;;;3.58;0.82;;;;;;;;;;4939164;29;20435;-73
2022/02/06 17:10:15;;;;;;;1.30;1.13;;;;;;;;;;4910003;29;20106;-74
2022/02/06 17:12:45;;;;;;;4.10;1.08;;;;;;;;;;4916852;29;20070;-74
2022/02/06 17:15:16;;;;;;;2.22;0.90;;;;;;;;;;4926227;29;20051;-75
2022/02/06 17:17:49;;;;;;;1.20;0.90;;;;;;;;;;4913193;29;20543;-74
2022/02/06 17:20:21;;;;;;;2.53;1.13;;;;;;;;;;4948650;29;20451;-76
2022/02/06 17:22:51;;;;;;;1.70;0.82;;;;;;;;;;4945252;29;20055;-70
2022/02/06 17:25:22;;;;;;;1.52;0.82;;;;;;;;;;4965254;28;20094;-75
2022/02/06 17:27:52;;;;;;;1.48;0.82;;;;;;;;;;4982202;28;20059;-72